Time;durP1;ratioP1;P1;durP2;ratioP2;P2;SDS_P1;SDS_P2;PMS_P1;PMS_P2;Temp;Humidity;BMP_temperature;BMP_pressure;BME280_temperature;BME280_humidity;BME280_pressure;Samples;Min_cycle;Max_cycle;Signal;HPM_P1;HPM_P2
2022/08/28 00:02:00;;;;;;;19.67;16.92;;;;;;;18.89;100.00;100385.22;4963268;28;20543;-77
2022/08/28 00:04:26;;;;;;;27.02;19.00;;;;;;;18.82;100.00;100377.47;4962102;28;20090;-77
2022/08/28 00:06:51;;;;;;;22.33;16.33;;;;;;;18.83;100.00;100379.22;4964812;28;20074;-77
2022/08/28 00:09:16;;;;;;;21.70;16.80;;;;;;;18.83;100.00;100375.66;4963248;28;20063;-77
2022/08/28 00:11:42;;;;;;;21.80;17.05;;;;;;;18.86;100.00;100382.69;4946204;28;20043;-77
2022/08/28 00:14:09;;;;;;;23.08;16.73;;;;;;;18.81;100.00;100381.09;4932148;28;20444;-77
2022/08/28 00:16:35;;;;;;;23.58;18.55;;;;;;;18.77;100.00;100379.47;4962267;28;20402;-77
2022/08/28 00:19:00;;;;;;;23.10;17.30;;;;;;;18.80;100.00;100381.16;4965238;28;20038;-76
2022/08/28 00:21:31;;;;;;;24.80;17.27;;;;;;;18.77;100.00;100376.81;4962043;28;20520;-77
2022/08/28 00:23:58;;;;;;;26.90;18.67;;;;;;;18.77;100.00;100382.16;4946209;28;20117;-77
2022/08/28 00:29:07;;;;;;;19.25;17.05;;;;;;;18.77;100.00;100389.31;4945676;28;20035;-76
2022/08/28 00:31:37;;;;;;;24.88;18.30;;;;;;;18.69;100.00;100380.72;4962266;28;20042;-77
2022/08/28 00:34:03;;;;;;;19.65;15.95;;;;;;;18.75;100.00;100384.00;4963418;28;20050;-77
2022/08/28 00:36:29;;;;;;;28.40;17.50;;;;;;;18.73;100.00;100387.66;4962052;28;20039;-76
2022/08/28 00:38:55;;;;;;;23.45;17.33;;;;;;;18.71;100.00;100395.75;4963888;28;20049;-76
2022/08/28 00:41:20;;;;;;;21.08;16.88;;;;;;;18.69;100.00;100392.28;4963058;28;20046;-77
2022/08/28 00:43:48;;;;;;;22.63;17.23;;;;;;;18.73;100.00;100393.91;4959436;28;20042;-76
2022/08/28 00:46:21;;;;;;;25.15;17.65;;;;;;;18.70;100.00;100388.66;4944449;29;20513;-76
2022/08/28 00:48:47;;;;;;;24.15;19.08;;;;;;;18.72;100.00;100392.13;4959773;28;20094;-76
2022/08/28 00:53:59;;;;;;;23.48;17.73;;;;;;;18.66;100.00;100387.06;4960087;28;20036;-76
2022/08/28 00:56:27;;;;;;;23.20;17.95;;;;;;;18.67;100.00;100399.47;4962802;28;20041;-76
2022/08/28 00:58:56;;;;;;;22.13;16.25;;;;;;;18.72;100.00;100401.97;4964115;28;20056;-77
2022/08/28 01:01:22;;;;;;;22.88;17.30;;;;;;;18.68;100.00;100384.31;4957613;28;20508;-77
2022/08/28 01:03:47;;;;;;;22.52;16.17;;;;;;;18.67;100.00;100394.13;4963710;28;20038;-76
2022/08/28 01:06:15;;;;;;;18.95;16.92;;;;;;;18.70;100.00;100399.34;4943535;28;20049;-76
2022/08/28 01:08:43;;;;;;;28.95;19.05;;;;;;;18.60;100.00;100389.97;4963361;28;20035;-77
2022/08/28 01:11:11;;;;;;;28.02;18.95;;;;;;;18.59;100.00;100397.13;4961049;28;20046;-77
2022/08/28 01:13:40;;;;;;;20.67;17.05;;;;;;;18.65;100.00;100398.66;4952136;28;20043;-77
2022/08/28 01:16:07;;;;;;;20.60;15.75;;;;;;;18.64;100.00;100399.63;4962404;28;20470;-76
2022/08/28 01:18:33;;;;;;;23.52;16.02;;;;;;;18.64;100.00;100399.63;4962290;28;20034;-77
2022/08/28 01:21:23;;;;;;;20.40;16.33;;;;;;;18.63;100.00;100403.22;4961504;28;20035;-77
2022/08/28 01:23:56;;;;;;;22.95;19.70;;;;;;;18.59;100.00;100396.25;4961663;28;20046;-77
2022/08/28 01:26:23;;;;;;;22.60;15.77;;;;;;;18.59;100.00;100394.44;4958680;28;20038;-77
2022/08/28 01:28:50;;;;;;;18.90;16.73;;;;;;;18.61;100.00;100389.06;4962854;28;20035;-77
2022/08/28 01:31:17;;;;;;;18.55;15.00;;;;;;;18.59;100.00;100390.91;4963093;28;20094;-77
2022/08/28 01:33:44;;;;;;;27.60;19.90;;;;;;;18.53;100.00;100392.03;4961246;28;20468;-77
2022/08/28 01:36:11;;;;;;;27.00;17.92;;;;;;;18.54;100.00;100387.56;4959782;28;20045;-77
2022/08/28 01:38:38;;;;;;;19.83;16.88;;;;;;;18.59;100.00;100385.56;4964508;28;20043;-77
2022/08/28 01:41:03;;;;;;;22.00;17.40;;;;;;;18.49;100.00;100392.22;4966433;28;20433;-78
2022/08/28 01:43:30;;;;;;;19.45;16.58;;;;;;;18.51;100.00;100390.38;4966883;28;20042;-77
2022/08/28 01:46:02;;;;;;;23.10;17.42;;;;;;;18.59;100.00;100393.59;4965239;28;20039;-77
2022/08/28 01:48:29;;;;;;;23.73;18.20;;;;;;;18.52;100.00;100394.75;4962274;28;20070;-77
2022/08/28 01:50:55;;;;;;;25.95;16.90;;;;;;;18.51;100.00;100396.56;4966459;28;20125;-78
2022/08/28 01:53:23;;;;;;;21.98;16.70;;;;;;;18.57;100.00;100398.13;4934292;28;20126;-77
2022/08/28 01:55:50;;;;;;;21.88;16.27;;;;;;;18.55;100.00;100400.00;4964922;28;20123;-77
2022/08/28 01:58:16;;;;;;;24.02;18.63;;;;;;;18.54;100.00;100404.47;4967882;28;20101;-77
2022/08/28 02:00:41;;;;;;;22.48;20.00;;;;;;;18.61;100.00;100400.59;4965158;28;20486;-77
2022/08/28 02:03:07;;;;;;;18.70;15.80;;;;;;;18.62;100.00;100401.47;4966143;28;20043;-77
2022/08/28 02:05:33;;;;;;;21.45;17.27;;;;;;;18.61;100.00;100407.75;4966207;28;20046;-77
2022/08/28 02:08:01;;;;;;;22.88;17.02;;;;;;;18.61;100.00;100411.31;4965115;28;20050;-77
2022/08/28 02:10:29;;;;;;;23.60;18.10;;;;;;;18.63;100.00;100408.56;4967668;28;20049;-77
2022/08/28 02:12:55;;;;;;;21.70;18.88;;;;;;;18.66;100.00;100408.44;4947424;28;20039;-77
2022/08/28 02:15:22;;;;;;;22.48;19.58;;;;;;;18.66;100.00;100418.28;4966266;28;20089;-77
2022/08/28 02:17:47;;;;;;;21.25;19.00;;;;;;;18.58;100.00;100427.47;4948844;28;20039;-77
2022/08/28 02:20:13;;;;;;;24.38;20.42;;;;;;;18.63;100.00;100421.94;4947737;28;20050;-77
2022/08/28 02:22:39;;;;;;;24.08;19.45;;;;;;;18.62;100.00;100433.53;4966998;28;20039;-77
2022/08/28 02:25:06;;;;;;;25.33;19.50;;;;;;;18.58;100.00;100423.94;4964078;28;20035;-77
2022/08/28 02:27:31;;;;;;;29.60;19.95;;;;;;;18.59;100.00;100428.34;4966572;28;20039;-77
2022/08/28 02:30:00;;;;;;;27.17;19.10;;;;;;;18.58;100.00;100418.59;4965486;28;20137;-78
2022/08/28 02:32:26;;;;;;;27.02;19.42;;;;;;;18.60;100.00;100411.34;4964579;28;20083;-77
2022/08/28 02:34:53;;;;;;;24.90;19.98;;;;;;;18.59;100.00;100418.50;4965942;28;20030;-77
2022/08/28 02:37:19;;;;;;;23.67;20.92;;;;;;;18.56;100.00;100420.44;4963847;28;20043;-77
2022/08/28 02:39:45;;;;;;;29.13;26.05;;;;;;;18.51;100.00;100414.41;4949054;28;20401;-77
2022/08/28 02:42:10;;;;;;;25.23;20.85;;;;;;;18.56;100.00;100423.13;4932800;28;20126;-77
2022/08/28 02:44:35;;;;;;;30.00;21.25;;;;;;;18.60;100.00;100412.25;4947754;28;20043;-77
2022/08/28 02:47:02;;;;;;;30.35;21.67;;;;;;;18.54;100.00;100422.31;4966178;28;20101;-76
2022/08/28 02:49:27;;;;;;;25.58;20.35;;;;;;;18.50;100.00;100434.94;4943182;29;20043;-76
2022/08/28 02:51:54;;;;;;;30.77;21.77;;;;;;;18.47;100.00;100431.50;4963769;28;20043;-76
2022/08/28 02:54:20;;;;;;;24.88;20.17;;;;;;;18.45;100.00;100431.56;4963519;28;20043;-76
2022/08/28 02:56:45;;;;;;;29.58;21.70;;;;;;;18.42;100.00;100444.16;4965968;28;20121;-76
2022/08/28 02:59:12;;;;;;;25.50;21.83;;;;;;;18.40;100.00;100433.56;4965600;28;20100;-76
2022/08/28 03:01:37;;;;;;;22.25;18.45;;;;;;;18.41;100.00;100429.94;4963671;28;20208;-76
2022/08/28 03:04:04;;;;;;;27.25;20.58;;;;;;;18.39;100.00;100430.03;4964825;28;20118;-76
2022/08/28 03:06:30;;;;;;;28.70;21.80;;;;;;;18.32;100.00;100438.34;4957402;28;20482;-76
2022/08/28 03:08:55;;;;;;;27.20;18.92;;;;;;;18.30;100.00;100427.69;4942813;28;20039;-76
2022/08/28 03:11:21;;;;;;;24.65;20.60;;;;;;;18.29;100.00;100423.31;4963258;28;20078;-76
2022/08/28 03:13:48;;;;;;;22.10;17.67;;;;;;;18.22;100.00;100424.47;4965213;28;20051;-76
2022/08/28 03:16:14;;;;;;;23.08;17.70;;;;;;;18.25;100.00;100429.69;4946343;29;20031;-76
2022/08/28 03:18:40;;;;;;;22.20;16.85;;;;;;;18.24;100.00;100433.28;4966332;28;20379;-76
2022/08/28 03:21:06;;;;;;;20.80;18.55;;;;;;;18.28;100.00;100434.03;4963328;28;20035;-76
2022/08/28 03:23:31;;;;;;;24.17;18.63;;;;;;;18.20;100.00;100426.31;4965152;28;20078;-76
2022/08/28 03:26:06;;;;;;;22.90;16.83;;;;;;;18.25;100.00;100436.84;4964674;28;20074;-76
2022/08/28 03:28:35;;;;;;;24.85;19.27;;;;;;;18.25;100.00;100432.34;4962998;28;20031;-76
2022/08/28 03:31:01;;;;;;;23.02;17.45;;;;;;;18.21;100.00;100430.75;4965298;28;20237;-75
2022/08/28 03:33:27;;;;;;;23.45;17.33;;;;;;;18.18;100.00;100439.75;4946673;28;20064;-76
2022/08/28 03:35:54;;;;;;;24.40;17.45;;;;;;;18.17;100.00;100435.31;4956465;28;20034;-75
2022/08/28 03:38:20;;;;;;;20.90;17.25;;;;;;;18.22;100.00;100439.63;4965229;28;20043;-75
2022/08/28 03:40:46;;;;;;;20.48;16.48;;;;;;;18.17;100.00;100432.66;4945493;28;20042;-75
2022/08/28 03:43:13;;;;;;;21.67;15.90;;;;;;;18.18;100.00;100436.19;4965368;28;20038;-75
2022/08/28 03:45:39;;;;;;;27.02;16.75;;;;;;;18.10;100.00;100431.19;4963791;28;20171;-76
2022/08/28 03:48:06;;;;;;;21.42;15.30;;;;;;;18.08;100.00;100432.16;4964141;28;20540;-75
2022/08/28 03:50:32;;;;;;;18.10;12.75;;;;;;;17.99;100.00;100438.72;4965015;28;20031;-75
2022/08/28 03:52:58;;;;;;;16.20;12.32;;;;;;;17.91;100.00;100440.81;4962320;28;20106;-75
2022/08/28 03:55:23;;;;;;;19.58;12.63;;;;;;;17.85;100.00;100444.59;4945269;28;20042;-75
2022/08/28 03:57:49;;;;;;;18.25;12.90;;;;;;;17.75;100.00;100454.69;4965038;28;20605;-75
2022/08/28 04:00:15;;;;;;;16.95;10.88;;;;;;;17.68;100.00;100455.88;4963497;28;20126;-75
2022/08/28 04:02:42;;;;;;;14.32;11.02;;;;;;;17.69;100.00;100456.72;4963346;28;20162;-75
2022/08/28 04:05:09;;;;;;;17.15;10.55;;;;;;;17.63;100.00;100454.25;4961628;28;20038;-75
2022/08/28 04:07:36;;;;;;;14.23;10.90;;;;;;;17.63;100.00;100460.50;4962213;28;20039;-75
2022/08/28 04:10:01;;;;;;;17.88;10.98;;;;;;;17.62;100.00;100468.53;4956292;28;20122;-76
2022/08/28 04:12:27;;;;;;;13.65;10.68;;;;;;;17.52;100.00;100460.84;4955150;28;20126;-75
2022/08/28 04:14:53;;;;;;;17.67;11.50;;;;;;;17.53;100.00;100467.97;4953111;28;20038;-75
2022/08/28 04:17:18;;;;;;;15.07;10.90;;;;;;;17.50;100.00;100465.41;4958677;28;20041;-75
2022/08/28 04:19:44;;;;;;;16.88;10.82;;;;;;;17.52;100.00;100466.19;4958879;28;20035;-75
2022/08/28 04:22:09;;;;;;;18.65;11.10;;;;;;;17.49;100.00;100460.97;4957742;28;20628;-75
2022/08/28 04:24:35;;;;;;;18.40;11.93;;;;;;;17.55;100.00;100465.22;4942872;28;20069;-75
2022/08/28 04:27:00;;;;;;;29.98;12.43;;;;;;;17.51;100.00;100469.81;4955897;28;20035;-75
2022/08/28 04:29:26;;;;;;;18.50;11.05;;;;;;;17.46;100.00;100478.91;4960795;28;20543;-75
2022/08/28 04:31:51;;;;;;;16.83;12.52;;;;;;;17.43;100.00;100466.53;4959399;28;20326;-75
2022/08/28 04:34:17;;;;;;;16.23;10.85;;;;;;;17.36;100.00;100475.69;4957968;28;20126;-75
2022/08/28 04:36:42;;;;;;;19.00;11.68;;;;;;;17.30;100.00;100473.22;4939830;29;20043;-75
2022/08/28 04:39:09;;;;;;;17.00;11.40;;;;;;;17.32;100.00;100476.72;4957396;28;20651;-75
2022/08/28 04:41:37;;;;;;;17.77;13.10;;;;;;;17.17;100.00;100478.13;4940236;28;20047;-75
2022/08/28 04:44:03;;;;;;;18.58;12.13;;;;;;;17.18;100.00;100486.97;4940655;28;20055;-75
2022/08/28 04:46:29;;;;;;;18.02;11.50;;;;;;;17.17;100.00;100486.13;4957269;28;20027;-75
2022/08/28 04:48:54;;;;;;;16.20;10.73;;;;;;;17.10;100.00;100489.91;4964448;28;20104;-75
2022/08/28 04:51:19;;;;;;;19.42;11.82;;;;;;;17.05;100.00;100491.84;4961186;28;20039;-75
2022/08/28 04:53:45;;;;;;;22.15;11.35;;;;;;;17.00;100.00;100496.47;4961483;28;20035;-75
2022/08/28 04:56:12;;;;;;;21.52;9.98;;;;;;;16.91;100.00;100495.00;4963879;28;20031;-75
2022/08/28 04:58:38;;;;;;;15.43;9.65;;;;;;;16.81;100.00;100501.53;4963154;28;20035;-75
2022/08/28 05:01:19;;;;;;;23.08;10.02;;;;;;;16.70;100.00;100500.97;4962065;28;20122;-75
2022/08/28 05:03:46;;;;;;;14.60;9.77;;;;;;;16.70;100.00;100501.84;4960196;28;20046;-75
2022/08/28 05:06:13;;;;;;;19.02;9.68;;;;;;;16.54;100.00;100501.47;4961120;28;20101;-75
2022/08/28 05:08:39;;;;;;;18.50;9.30;;;;;;;16.62;100.00;100510.09;4964188;28;20090;-75
2022/08/28 05:11:10;;;;;;;14.82;9.40;;;;;;;16.60;100.00;100503.94;4961104;28;20051;-75
2022/08/28 05:13:36;;;;;;;15.93;8.25;;;;;;;16.53;100.00;100507.72;4963824;28;20038;-75
2022/08/28 05:16:02;;;;;;;14.38;10.05;;;;;;;16.64;100.00;100521.56;4966388;28;20074;-75
2022/08/28 05:18:28;;;;;;;15.02;8.52;;;;;;;16.65;100.00;100517.09;4944900;28;20068;-76
2022/08/28 05:20:54;;;;;;;21.60;10.18;;;;;;;16.58;100.00;100513.78;4962363;28;20508;-75
2022/08/28 05:23:19;;;;;;;12.48;9.15;;;;;;;16.67;100.00;100514.41;4960790;28;20425;-75
2022/08/28 05:25:46;;;;;;;18.15;8.35;;;;;;;16.53;100.00;100509.50;4963999;28;20066;-75
2022/08/28 05:28:15;;;;;;;16.38;9.52;;;;;;;16.64;100.00;100518.91;4952220;28;20051;-75
2022/08/28 05:30:42;;;;;;;21.25;8.48;;;;;;;16.59;100.00;100519.97;4953262;28;20093;-75
2022/08/28 05:33:09;;;;;;;13.90;9.07;;;;;;;16.55;100.00;100527.16;4938762;29;20470;-75
2022/08/28 05:35:37;;;;;;;18.83;8.95;;;;;;;16.58;100.00;100528.88;4954183;28;20031;-75
2022/08/28 05:38:03;;;;;;;16.17;8.45;;;;;;;16.61;100.00;100535.00;4957379;28;20052;-75
2022/08/28 05:40:29;;;;;;;20.02;8.73;;;;;;;16.57;100.00;100533.34;4957810;28;20055;-75
2022/08/28 05:42:54;;;;;;;15.73;8.57;;;;;;;16.49;100.00;100535.38;4961383;28;20067;-75
2022/08/28 05:45:21;;;;;;;13.45;8.18;;;;;;;16.54;100.00;100530.78;4958209;28;20038;-75
2022/08/28 05:47:47;;;;;;;16.65;8.35;;;;;;;16.52;100.00;100537.94;4959339;28;20039;-75
2022/08/28 05:50:13;;;;;;;20.20;8.77;;;;;;;16.56;100.00;100552.06;4961131;28;20045;-75
2022/08/28 05:52:40;;;;;;;18.45;8.77;;;;;;;16.60;100.00;100549.22;4952598;28;20062;-75
2022/08/28 05:55:07;;;;;;;14.20;9.15;;;;;;;16.68;98.57;100561.44;4963610;28;20047;-75
2022/08/28 05:57:33;;;;;;;13.43;8.52;;;;;;;16.72;98.81;100557.78;4963383;28;20126;-75
2022/08/28 05:59:58;;;;;;;15.20;9.15;;;;;;;16.74;98.90;100571.91;4943501;28;20114;-74
2022/08/28 06:02:25;;;;;;;17.42;9.27;;;;;;;16.83;98.92;100558.34;4936683;28;20043;-74
2022/08/28 06:04:52;;;;;;;14.00;8.88;;;;;;;16.96;96.70;100562.34;4955408;28;20043;-74
2022/08/28 06:07:18;;;;;;;14.90;9.30;;;;;;;17.01;95.69;100564.88;4951571;28;20079;-75
2022/08/28 06:09:43;;;;;;;14.35;9.60;;;;;;;17.03;96.26;100574.56;4961422;28;20174;-74
2022/08/28 06:12:09;;;;;;;15.07;9.98;;;;;;;17.03;95.96;100571.91;4954858;28;20027;-74
2022/08/28 06:14:34;;;;;;;17.75;10.75;;;;;;;17.00;95.42;100573.78;4963785;28;20547;-74
2022/08/28 06:17:00;;;;;;;20.23;9.98;;;;;;;16.99;95.43;100578.25;4955420;28;20043;-75
2022/08/28 06:19:28;;;;;;;21.15;10.95;;;;;;;16.95;95.27;100579.28;4962031;28;20022;-75
2022/08/28 06:21:59;;;;;;;17.25;9.90;;;;;;;16.97;95.97;100569.41;4930381;28;20038;-74
2022/08/28 06:24:26;;;;;;;14.20;12.20;;;;;;;16.97;96.02;100585.41;4965193;28;20541;-74
2022/08/28 06:26:52;;;;;;;18.63;10.63;;;;;;;16.85;95.22;100581.34;4961634;28;20070;-74
2022/08/28 06:29:18;;;;;;;20.73;11.27;;;;;;;16.75;95.89;100590.53;4966441;28;20125;-73
2022/08/28 06:31:45;;;;;;;16.30;10.75;;;;;;;16.70;95.71;100586.25;4944813;28;20050;-74
2022/08/28 06:34:11;;;;;;;17.05;10.57;;;;;;;16.58;96.60;100583.06;4963497;28;20031;-74
2022/08/28 06:36:41;;;;;;;18.20;11.02;;;;;;;16.42;98.78;100590.59;4963463;28;20050;-74
2022/08/28 06:39:08;;;;;;;20.42;10.60;;;;;;;16.42;98.04;100582.59;4960718;28;20458;-74
2022/08/28 06:41:39;;;;;;;17.60;9.32;;;;;;;16.36;98.28;100595.25;4965626;28;20039;-74
2022/08/28 06:44:06;;;;;;;22.52;10.63;;;;;;;16.28;99.21;100591.94;4933928;28;20126;-74
2022/08/28 06:46:33;;;;;;;18.88;9.73;;;;;;;16.31;98.98;100591.84;4963656;28;20130;-74
2022/08/28 06:49:01;;;;;;;14.80;10.48;;;;;;;16.31;99.38;100594.50;4955646;28;20408;-75
2022/08/28 06:51:26;;;;;;;19.80;9.43;;;;;;;16.31;99.73;100592.72;4959127;28;20085;-74
2022/08/28 06:53:52;;;;;;;17.58;9.40;;;;;;;16.42;100.00;100597.72;4959044;28;20067;-73
2022/08/28 06:56:19;;;;;;;16.50;9.73;;;;;;;16.55;99.64;100603.56;4960587;28;20037;-74
2022/08/28 06:58:47;;;;;;;17.58;9.93;;;;;;;16.62;98.29;100616.66;4960572;28;20038;-75
2022/08/28 07:01:16;;;;;;;19.08;10.48;;;;;;;16.74;97.94;100594.13;4955691;28;20097;-75
2022/08/28 07:03:44;;;;;;;24.95;10.88;;;;;;;16.70;96.93;100612.91;4955767;28;20035;-75
2022/08/28 07:06:11;;;;;;;19.13;9.85;;;;;;;16.70;96.12;100594.25;4955155;28;20121;-75
2022/08/28 07:08:37;;;;;;;19.15;9.70;;;;;;;16.73;96.63;100587.03;4950658;28;20039;-75
2022/08/28 07:11:15;;;;;;;16.40;10.70;;;;;;;16.71;96.66;100586.19;4953818;28;20058;-75
2022/08/28 07:13:42;;;;;;;20.42;10.48;;;;;;;16.82;96.41;100596.56;4959704;28;20034;-75
2022/08/28 07:16:08;;;;;;;17.30;10.43;;;;;;;16.90;95.63;100599.88;4960094;28;20120;-75
2022/08/28 07:18:34;;;;;;;21.10;10.95;;;;;;;16.96;94.50;100593.47;4959000;28;20031;-75
2022/08/28 07:20:59;;;;;;;22.10;11.32;;;;;;;16.95;94.36;100595.28;4958391;28;20043;-75
2022/08/28 07:23:26;;;;;;;14.57;11.70;;;;;;;16.95;94.21;100605.06;4943472;28;20409;-75
2022/08/28 07:25:52;;;;;;;15.85;10.05;;;;;;;17.01;94.62;100594.22;4964136;28;20039;-75
2022/08/28 07:28:17;;;;;;;14.25;9.23;;;;;;;17.11;94.73;100597.44;4948386;28;20023;-75
2022/08/28 07:30:43;;;;;;;20.40;12.23;;;;;;;17.31;93.74;100606.53;4966806;28;20082;-75
2022/08/28 07:33:09;;;;;;;23.55;10.68;;;;;;;17.33;92.71;100593.16;4962493;28;20065;-75
2022/08/28 07:35:34;;;;;;;20.40;10.35;;;;;;;17.41;91.00;100599.09;4961325;28;20167;-75
2022/08/28 07:37:59;;;;;;;25.92;11.27;;;;;;;17.51;90.10;100607.69;4947787;28;20482;-75
2022/08/28 07:40:25;;;;;;;22.23;10.98;;;;;;;17.59;90.52;100602.09;4964308;28;20074;-75
2022/08/28 07:45:34;;;;;;;21.55;12.30;;;;;;;17.71;89.99;100601.66;4958274;28;20039;-75
2022/08/28 07:48:03;;;;;;;13.55;10.38;;;;;;;17.84;89.45;100602.13;4957608;28;20593;-75
2022/08/28 07:50:28;;;;;;;17.13;10.70;;;;;;;17.98;89.21;100607.88;4965676;28;20045;-75
2022/08/28 07:52:54;;;;;;;16.08;10.77;;;;;;;18.18;86.64;100604.47;4962172;28;20035;-75
2022/08/28 07:55:19;;;;;;;19.02;10.75;;;;;;;18.28;85.99;100599.66;4965289;28;20039;-75
2022/08/28 07:57:46;;;;;;;19.10;11.20;;;;;;;18.23;86.61;100599.84;4958339;28;20061;-75
2022/08/28 08:00:12;;;;;;;18.13;12.13;;;;;;;18.37;85.75;100610.91;4961040;28;20459;-75
2022/08/28 08:02:38;;;;;;;16.73;11.68;;;;;;;18.37;84.49;100604.69;4962970;28;20027;-75
2022/08/28 08:05:04;;;;;;;15.77;11.55;;;;;;;18.38;84.31;100607.28;4962681;28;20062;-75
2022/08/28 08:07:29;;;;;;;14.45;10.02;;;;;;;18.38;85.20;100612.63;4926348;28;20065;-75
2022/08/28 08:09:55;;;;;;;14.45;10.63;;;;;;;18.46;85.14;100614.16;4948444;28;20116;-75
2022/08/28 08:12:20;;;;;;;18.40;11.98;;;;;;;18.32;83.84;100623.56;4964012;28;20041;-76
2022/08/28 08:14:48;;;;;;;15.73;9.98;;;;;;;18.43;85.05;100614.28;4946403;28;20047;-75
2022/08/28 08:17:13;;;;;;;16.63;10.90;;;;;;;18.49;83.98;100616.69;4959774;28;20030;-75
2022/08/28 08:19:39;;;;;;;21.70;9.45;;;;;;;18.57;83.57;100611.94;4957950;28;20517;-75
2022/08/28 08:22:05;;;;;;;18.42;12.30;;;;;;;18.71;82.68;100603.41;4941412;28;20038;-76
2022/08/28 08:24:30;;;;;;;16.50;10.68;;;;;;;18.75;83.18;100613.94;4964532;28;20051;-75
2022/08/28 08:26:59;;;;;;;20.30;10.00;;;;;;;18.82;83.37;100609.25;4963387;28;20053;-75
2022/08/28 08:29:26;;;;;;;22.77;10.73;;;;;;;19.00;81.18;100619.22;4961166;28;20129;-75
2022/08/28 08:31:56;;;;;;;15.57;9.75;;;;;;;18.94;82.23;100615.88;4959864;28;20401;-76
2022/08/28 08:34:22;;;;;;;13.20;9.85;;;;;;;19.13;82.75;100616.91;4957845;28;20093;-74
2022/08/28 08:36:48;;;;;;;17.67;9.80;;;;;;;19.34;80.87;100622.34;4962719;28;20553;-75
2022/08/28 08:39:13;;;;;;;18.08;9.38;;;;;;;19.37;80.54;100623.06;4945861;28;20126;-74
2022/08/28 08:41:46;;;;;;;22.60;9.45;;;;;;;19.32;78.64;100617.03;4963758;28;20058;-74
2022/08/28 08:44:14;;;;;;;18.60;11.07;;;;;;;19.41;80.22;100622.03;4958082;28;20046;-74
2022/08/28 08:46:44;;;;;;;15.00;10.00;;;;;;;19.51;78.69;100630.53;4960823;28;20043;-75
2022/08/28 08:49:14;;;;;;;13.65;9.15;;;;;;;19.56;78.79;100628.53;4963291;28;20120;-74
2022/08/28 08:51:49;;;;;;;15.07;10.23;;;;;;;19.69;78.10;100629.78;4958437;28;20043;-75
2022/08/28 08:54:18;;;;;;;10.23;8.77;;;;;;;19.87;78.04;100632.63;4960365;28;20482;-74
2022/08/28 08:56:46;;;;;;;22.92;9.77;;;;;;;19.96;75.48;100644.72;4962220;28;20430;-74
2022/08/28 08:59:18;;;;;;;15.90;9.48;;;;;;;19.87;76.99;100636.16;4964669;28;20039;-74
2022/08/28 09:02:00;;;;;;;17.00;10.85;;;;;;;19.96;75.11;100637.56;4929986;28;20500;-74
2022/08/28 09:04:47;;;;;;;14.23;12.73;;;;;;;20.01;75.99;100645.41;4954664;28;20506;-75
2022/08/28 09:07:23;;;;;;;16.42;10.43;;;;;;;20.13;75.95;100635.03;4960903;28;20035;-74
2022/08/28 09:09:54;;;;;;;16.00;11.02;;;;;;;20.28;73.65;100640.66;4962731;28;20042;-75
2022/08/28 09:12:28;;;;;;;14.65;10.55;;;;;;;20.40;74.43;100634.72;4963983;28;20145;-75
2022/08/28 09:15:04;;;;;;;22.35;10.50;;;;;;;20.40;73.21;100632.03;4959738;28;20046;-75
2022/08/28 09:17:34;;;;;;;17.05;10.73;;;;;;;20.47;73.32;100625.47;4944328;29;20046;-75
2022/08/28 09:20:00;;;;;;;16.52;13.48;;;;;;;20.64;73.32;100637.25;4943193;28;20075;-75
2022/08/28 09:22:26;;;;;;;18.73;11.07;;;;;;;20.57;72.83;100642.91;4960817;28;20039;-75
2022/08/28 09:24:53;;;;;;;21.02;11.10;;;;;;;20.56;71.71;100641.16;4962961;28;20059;-75
2022/08/28 09:27:26;;;;;;;15.50;11.63;;;;;;;20.25;72.80;100647.03;4961140;28;20039;-75
2022/08/28 09:30:00;;;;;;;19.42;13.75;;;;;;;20.23;74.28;100654.25;4957070;28;20553;-75
2022/08/28 09:32:40;;;;;;;18.63;13.38;;;;;;;20.25;72.35;100654.16;4927042;28;20046;-75
2022/08/28 09:35:26;;;;;;;16.45;10.68;;;;;;;20.29;73.49;100651.28;4953291;28;20043;-75
2022/08/28 09:37:52;;;;;;;18.92;15.15;;;;;;;20.56;73.05;100654.56;4957113;28;20047;-75
2022/08/28 09:43:26;;;;;;;18.20;16.00;;;;;;;20.54;71.27;100659.16;4961000;28;20047;-75
2022/08/28 09:45:59;;;;;;;14.70;12.23;;;;;;;20.67;71.23;100650.53;4957909;28;20114;-75
2022/08/28 09:48:36;;;;;;;23.05;20.58;;;;;;;20.65;71.85;100666.69;4962064;28;20047;-75
2022/08/28 09:51:20;;;;;;;13.77;12.00;;;;;;;20.50;71.55;100659.31;4954171;28;20036;-75
2022/08/28 09:53:51;;;;;;;18.13;12.93;;;;;;;20.33;72.03;100657.38;4960511;28;20039;-75
2022/08/28 09:56:33;;;;;;;18.55;13.63;;;;;;;20.24;72.11;100663.16;4956723;28;20213;-75
2022/08/28 09:59:05;;;;;;;;;;;;;;;20.26;74.51;100663.97;4948831;28;20074;-75
2022/08/28 10:01:57;;;;;;;21.40;11.95;;;;;;;20.48;71.92;100656.69;4965690;28;19914;-74
2022/08/28 10:04:44;;;;;;;18.50;14.20;;;;;;;20.78;71.56;100662.50;4949812;28;20553;-74
2022/08/28 10:07:25;;;;;;;21.58;13.27;;;;;;;20.68;70.86;100663.00;4963564;28;20035;-75
2022/08/28 10:09:53;;;;;;;20.13;17.90;;;;;;;20.76;71.60;100659.03;4961179;28;20406;-75
2022/08/28 10:12:43;;;;;;;17.75;11.57;;;;;;;20.75;71.05;100662.66;4948679;28;20409;-74
2022/08/28 10:15:28;;;;;;;18.85;14.48;;;;;;;20.60;69.36;100675.91;4963276;28;20089;-74
2022/08/28 10:18:05;;;;;;;19.40;13.60;;;;;;;20.53;70.24;100680.63;4961583;28;20465;-74
2022/08/28 10:20:33;;;;;;;16.40;13.88;;;;;;;20.73;69.86;100669.91;4947161;29;20035;-75
2022/08/28 10:23:18;;;;;;;19.88;18.00;;;;;;;21.01;68.08;100690.06;4960133;28;20117;-74
2022/08/28 10:26:09;;;;;;;15.15;13.65;;;;;;;20.99;68.36;100686.59;4964008;28;20035;-74
2022/08/28 10:28:40;;;;;;;17.35;12.10;;;;;;;21.11;70.00;100671.72;4966782;28;20039;-74
2022/08/28 10:31:14;;;;;;;19.00;13.17;;;;;;;21.18;67.78;100675.84;4964824;28;20350;-74
2022/08/28 10:33:42;;;;;;;15.30;11.93;;;;;;;20.80;69.48;100675.84;4946245;28;20092;-74
2022/08/28 10:36:17;;;;;;;14.52;11.35;;;;;;;20.93;69.35;100684.19;4964076;28;20042;-74
2022/08/28 10:38:50;;;;;;;25.08;13.27;;;;;;;20.97;69.35;100675.94;4947718;28;20118;-74
2022/08/28 10:41:20;;;;;;;16.98;13.48;;;;;;;20.75;68.60;100699.31;4962435;28;20126;-74
2022/08/28 10:43:47;;;;;;;15.43;13.43;;;;;;;20.77;68.36;100686.72;4949376;28;20051;-74
2022/08/28 10:46:19;;;;;;;22.50;12.90;;;;;;;20.78;68.66;100683.09;4964195;28;20042;-75
2022/08/28 10:49:16;;;;;;;13.90;12.32;;;;;;;20.93;68.45;100676.13;4962402;28;20561;-73
2022/08/28 10:52:22;;;;;;;16.98;12.05;;;;;;;21.04;69.00;100678.31;4960346;28;20065;-75
2022/08/28 10:54:51;;;;;;;18.55;13.38;;;;;;;21.08;67.20;100696.88;4944799;28;20058;-74
2022/08/28 10:57:35;;;;;;;19.00;12.23;;;;;;;20.97;65.55;100693.84;4966576;28;20038;-74
2022/08/28 11:00:08;;;;;;;14.80;11.85;;;;;;;21.07;66.24;100672.81;4931864;29;20036;-74
2022/08/28 11:02:35;;;;;;;15.18;12.20;;;;;;;21.43;65.09;100673.75;4943855;28;20062;-74
2022/08/28 11:05:02;;;;;;;13.15;11.57;;;;;;;21.51;64.70;100689.50;4960991;28;20561;-74
2022/08/28 11:07:33;;;;;;;14.55;12.25;;;;;;;21.63;63.68;100682.63;4964233;28;20086;-74
2022/08/28 11:10:21;;;;;;;15.15;13.75;;;;;;;21.75;62.31;100679.34;4942882;28;20035;-75
2022/08/28 11:12:48;;;;;;;15.30;11.93;;;;;;;21.69;63.16;100676.09;4964189;28;20039;-74
2022/08/28 11:15:30;;;;;;;17.30;14.15;;;;;;;21.76;63.33;100673.00;4963310;28;20501;-74
2022/08/28 11:18:16;;;;;;;;;;;;;;;21.92;62.92;100683.00;4946430;29;20075;-74
2022/08/28 11:20:54;;;;;;;14.30;12.98;;;;;;;22.05;61.48;100679.59;4952326;28;19918;-74
2022/08/28 11:23:28;;;;;;;16.83;15.02;;;;;;;22.05;62.58;100676.91;4960737;28;20478;-74
2022/08/28 11:26:03;;;;;;;17.88;13.32;;;;;;;22.28;63.33;100665.00;4963466;28;20035;-74